Time;durP1;ratioP1;P1;durP2;ratioP2;P2;SDS_P1;SDS_P2;PMS_P1;PMS_P2;Temp;Humidity;BMP_temperature;BMP_pressure;BME280_temperature;BME280_humidity;BME280_pressure;Samples;Min_cycle;Max_cycle;Signal;HPM_P1;HPM_P2
2022/11/27 00:00:29;;;;;;;25.65;7.75;;;6.60;99.90;;;;;;4968050;28;20106;-41
2022/11/27 00:02:56;;;;;;;24.95;7.90;;;6.60;99.90;;;;;;4974338;28;20138;-40
2022/11/27 00:05:23;;;;;;;31.98;8.38;;;6.50;99.90;;;;;;4950362;28;20082;-41
2022/11/27 00:07:50;;;;;;;28.95;8.20;;;6.60;99.90;;;;;;4975478;28;20110;-41
2022/11/27 00:10:16;;;;;;;29.45;7.70;;;6.60;99.90;;;;;;4975359;28;20058;-38
2022/11/27 00:12:43;;;;;;;24.90;7.80;;;6.60;99.90;;;;;;4975318;28;20142;-41
2022/11/27 00:15:11;;;;;;;31.05;8.38;;;6.50;99.90;;;;;;4956224;28;20086;-40
2022/11/27 00:17:38;;;;;;;27.25;7.10;;;6.50;99.90;;;;;;4972438;28;20088;-41
2022/11/27 00:20:06;;;;;;;26.10;7.97;;;6.60;99.90;;;;;;4974686;28;20131;-41
2022/11/27 00:22:33;;;;;;;26.05;7.55;;;6.50;99.90;;;;;;4975546;28;20114;-40
2022/11/27 00:25:00;;;;;;;31.00;9.20;;;6.50;99.90;;;;;;4975548;28;20147;-39
2022/11/27 00:27:27;;;;;;;28.17;7.53;;;6.50;99.90;;;;;;4974810;28;20554;-39
2022/11/27 00:29:53;;;;;;;28.33;7.80;;;6.40;99.90;;;;;;4956722;28;20149;-39
2022/11/27 00:32:22;;;;;;;33.63;8.20;;;6.50;99.90;;;;;;4957336;28;20085;-39
2022/11/27 00:34:48;;;;;;;27.98;7.88;;;6.50;99.90;;;;;;4974295;28;20138;-40
2022/11/27 00:37:15;;;;;;;23.98;8.02;;;6.40;99.90;;;;;;4957595;28;20118;-40
2022/11/27 00:39:42;;;;;;;21.20;7.28;;;6.40;99.90;;;;;;4975131;28;20078;-40
2022/11/27 00:42:09;;;;;;;28.00;8.00;;;6.40;99.90;;;;;;4957535;28;20138;-40
2022/11/27 00:44:35;;;;;;;22.30;7.70;;;6.30;99.90;;;;;;4973240;28;20137;-40
2022/11/27 00:47:02;;;;;;;27.95;7.95;;;6.30;99.90;;;;;;4973104;28;20511;-40
2022/11/27 00:49:31;;;;;;;22.23;8.52;;;6.30;99.90;;;;;;4968870;28;20117;-40
2022/11/27 00:51:57;;;;;;;29.60;8.75;;;6.30;99.90;;;;;;4955201;28;20057;-40
2022/11/27 00:54:24;;;;;;;27.88;7.57;;;6.30;99.90;;;;;;4961609;28;20093;-40
2022/11/27 00:56:51;;;;;;;24.38;8.43;;;6.30;99.90;;;;;;4966861;28;20483;-40
2022/11/27 00:59:18;;;;;;;25.65;7.85;;;6.20;99.90;;;;;;4954128;28;20054;-40
2022/11/27 01:01:45;;;;;;;27.77;8.45;;;6.20;99.90;;;;;;4958127;28;20082;-40
2022/11/27 01:04:13;;;;;;;16.83;7.95;;;6.20;99.90;;;;;;4956913;28;20062;-41
2022/11/27 01:06:41;;;;;;;21.60;8.18;;;6.20;99.90;;;;;;4965404;28;20118;-40
2022/11/27 01:09:08;;;;;;;24.00;9.23;;;6.10;99.90;;;;;;4972748;28;20126;-41
2022/11/27 01:11:35;;;;;;;27.60;8.82;;;6.10;99.90;;;;;;4972060;28;20130;-40
2022/11/27 01:14:04;;;;;;;26.77;8.52;;;6.10;99.90;;;;;;4963459;28;20145;-40
2022/11/27 01:16:31;;;;;;;28.27;9.10;;;6.10;99.90;;;;;;4956678;28;20122;-41
2022/11/27 01:19:02;;;;;;;21.17;8.55;;;6.00;99.90;;;;;;4954389;29;20122;-40
2022/11/27 01:21:31;;;;;;;23.02;7.57;;;6.00;99.90;;;;;;4962504;28;20086;-40
2022/11/27 01:23:59;;;;;;;27.55;8.73;;;6.00;99.90;;;;;;4973449;28;20050;-40
2022/11/27 01:26:25;;;;;;;24.02;8.05;;;6.00;99.90;;;;;;4972156;28;20121;-39
2022/11/27 01:28:52;;;;;;;17.75;8.20;;;5.90;99.90;;;;;;4955440;28;20146;-41
2022/11/27 01:31:20;;;;;;;21.48;8.60;;;6.00;99.90;;;;;;4974144;28;20055;-41
2022/11/27 01:33:47;;;;;;;22.88;8.43;;;6.00;99.90;;;;;;4955136;28;20138;-39
2022/11/27 01:36:14;;;;;;;21.83;8.73;;;5.90;99.90;;;;;;4967508;28;20061;-40
2022/11/27 01:38:41;;;;;;;29.90;8.57;;;5.90;99.90;;;;;;4970776;28;20097;-41
2022/11/27 01:41:19;;;;;;;28.45;9.05;;;5.90;99.90;;;;;;4947231;28;20403;-40
2022/11/27 01:43:46;;;;;;;24.65;8.43;;;5.80;99.90;;;;;;4963280;28;20470;-40
2022/11/27 01:46:26;;;;;;;26.75;8.52;;;5.80;99.90;;;;;;4964775;28;20130;-40
2022/11/27 01:48:53;;;;;;;24.48;8.20;;;5.80;99.90;;;;;;4971876;28;20054;-38
2022/11/27 01:51:20;;;;;;;26.42;8.25;;;5.80;99.90;;;;;;4956476;28;20471;-41
2022/11/27 01:53:47;;;;;;;26.75;8.15;;;5.80;99.90;;;;;;4955288;28;20047;-40
2022/11/27 01:56:15;;;;;;;26.00;7.97;;;5.70;99.90;;;;;;4973093;28;20051;-38
2022/11/27 01:58:42;;;;;;;32.63;9.15;;;5.70;99.90;;;;;;4956485;28;20054;-40
2022/11/27 02:01:08;;;;;;;24.35;8.43;;;5.70;99.90;;;;;;4968552;28;20058;-38
2022/11/27 02:03:35;;;;;;;28.10;8.60;;;5.70;99.90;;;;;;4965636;28;20141;-40
2022/11/27 02:06:02;;;;;;;21.58;7.80;;;5.60;99.90;;;;;;4959207;28;20551;-42
2022/11/27 02:08:28;;;;;;;24.27;7.95;;;5.70;99.90;;;;;;4972034;28;20142;-40
2022/11/27 02:10:58;;;;;;;26.48;8.27;;;5.70;99.90;;;;;;4966455;28;20047;-40
2022/11/27 02:13:29;;;;;;;32.40;9.30;;;5.60;99.90;;;;;;4962404;28;20103;-39
2022/11/27 02:16:00;;;;;;;27.47;9.30;;;5.60;99.90;;;;;;4953398;28;20153;-40
2022/11/27 02:18:30;;;;;;;27.88;8.55;;;5.60;99.90;;;;;;4959172;28;20099;-40
2022/11/27 02:20:59;;;;;;;23.70;8.07;;;5.60;99.90;;;;;;4955681;28;20058;-40
2022/11/27 02:23:56;;;;;;;31.48;9.13;;;5.60;99.90;;;;;;4972687;28;20081;-38
2022/11/27 02:26:51;;;;;;;21.23;7.90;;;5.60;99.90;;;;;;4973404;28;20090;-41
2022/11/27 02:29:23;;;;;;;23.00;7.85;;;5.60;99.90;;;;;;4956931;28;20448;-40
2022/11/27 02:31:53;;;;;;;24.15;8.88;;;5.60;99.90;;;;;;4955388;28;20514;-40
2022/11/27 02:34:24;;;;;;;28.48;8.30;;;5.60;99.90;;;;;;4958152;28;20061;-39
2022/11/27 02:36:54;;;;;;;33.97;10.23;;;5.60;99.90;;;;;;4957546;28;20772;-38
2022/11/27 02:39:22;;;;;;;32.80;8.55;;;5.50;99.90;;;;;;4972167;28;20043;-40
2022/11/27 02:41:50;;;;;;;27.98;9.00;;;5.60;99.90;;;;;;4958171;28;20134;-39
2022/11/27 02:44:17;;;;;;;26.20;8.18;;;5.60;99.90;;;;;;4957691;28;20137;-38
2022/11/27 02:46:45;;;;;;;22.50;8.07;;;5.60;99.90;;;;;;4977857;28;20078;-40
2022/11/27 02:49:14;;;;;;;24.70;7.72;;;5.60;99.90;;;;;;4962454;28;20143;-41
2022/11/27 02:51:43;;;;;;;21.08;7.78;;;5.60;99.90;;;;;;4958877;28;20051;-41
2022/11/27 02:54:12;;;;;;;30.48;8.43;;;5.60;99.90;;;;;;4976260;28;20499;-41
2022/11/27 02:56:38;;;;;;;32.25;8.85;;;5.60;99.90;;;;;;4959979;28;20050;-39
2022/11/27 02:59:07;;;;;;;25.00;8.32;;;5.60;99.90;;;;;;4975941;28;20133;-40
2022/11/27 03:01:36;;;;;;;22.60;9.63;;;5.60;99.90;;;;;;4949153;28;20093;-40
2022/11/27 03:04:06;;;;;;;26.40;8.18;;;5.70;99.90;;;;;;4975765;28;20093;-37
2022/11/27 03:06:36;;;;;;;26.60;7.80;;;5.70;99.90;;;;;;4947102;28;20062;-39
2022/11/27 03:09:05;;;;;;;20.95;7.80;;;5.70;99.90;;;;;;4957497;28;20142;-41
2022/11/27 03:11:31;;;;;;;21.65;7.20;;;5.70;99.90;;;;;;4975569;28;20086;-41
2022/11/27 03:13:59;;;;;;;24.98;7.50;;;5.70;99.90;;;;;;4959477;28;20153;-40
2022/11/27 03:16:28;;;;;;;27.50;7.93;;;5.70;99.90;;;;;;4958683;28;20149;-40
2022/11/27 03:18:57;;;;;;;21.50;7.53;;;5.70;99.90;;;;;;4972186;28;20189;-40
2022/11/27 03:21:27;;;;;;;21.38;7.43;;;5.70;99.90;;;;;;4958002;28;20507;-38
2022/11/27 03:23:54;;;;;;;22.73;7.32;;;5.70;99.90;;;;;;4976370;28;20059;-40
2022/11/27 03:26:21;;;;;;;20.33;7.70;;;5.70;99.90;;;;;;4965324;28;20110;-39
2022/11/27 03:28:48;;;;;;;22.48;7.18;;;5.70;99.90;;;;;;4975709;28;20042;-42
2022/11/27 03:31:15;;;;;;;18.20;7.40;;;5.70;99.90;;;;;;4972810;28;20078;-40
2022/11/27 03:33:41;;;;;;;20.38;7.40;;;5.70;99.90;;;;;;4960670;28;20054;-40
2022/11/27 03:36:13;;;;;;;22.90;7.30;;;5.70;99.90;;;;;;4960708;28;20093;-39
2022/11/27 03:38:41;;;;;;;;;;;5.70;99.90;;;;;;4976583;28;20129;-40
2022/11/27 03:41:10;;;;;;;20.00;7.07;;;5.70;99.90;;;;;;4969418;28;20364;-41
2022/11/27 03:43:38;;;;;;;22.02;6.65;;;5.70;99.90;;;;;;4976295;28;20130;-40
2022/11/27 03:46:09;;;;;;;21.42;7.45;;;5.70;99.90;;;;;;4958552;28;20078;-39
2022/11/27 03:48:36;;;;;;;21.33;6.47;;;5.70;99.90;;;;;;4957897;28;20440;-41
2022/11/27 03:51:08;;;;;;;22.45;7.00;;;5.70;99.90;;;;;;4973959;28;20526;-40
2022/11/27 03:53:38;;;;;;;22.33;6.88;;;5.70;99.90;;;;;;4962991;28;20051;-41
2022/11/27 03:56:10;;;;;;;21.85;8.10;;;5.70;99.90;;;;;;4958701;28;20055;-40
2022/11/27 03:58:38;;;;;;;14.77;6.35;;;5.70;99.90;;;;;;4974411;28;20495;-41
2022/11/27 04:01:06;;;;;;;23.38;6.40;;;5.70;99.90;;;;;;4974107;28;20086;-40
2022/11/27 04:03:33;;;;;;;20.85;7.25;;;5.70;99.90;;;;;;4977839;28;20090;-42
2022/11/27 04:05:59;;;;;;;21.55;6.53;;;5.80;99.90;;;;;;4968917;28;20082;-39
2022/11/27 04:08:26;;;;;;;20.52;6.55;;;5.70;99.90;;;;;;4974823;28;20554;-40
2022/11/27 04:10:53;;;;;;;19.38;6.55;;;5.80;99.90;;;;;;4958302;28;20585;-40
2022/11/27 04:13:21;;;;;;;27.75;6.47;;;5.80;99.90;;;;;;4975020;28;20074;-41
2022/11/27 04:15:48;;;;;;;22.23;6.15;;;5.80;99.90;;;;;;4973201;28;20089;-41
2022/11/27 04:18:14;;;;;;;20.75;6.38;;;5.80;99.90;;;;;;4957227;28;20162;-38
2022/11/27 04:20:41;;;;;;;21.92;6.25;;;5.80;99.90;;;;;;4975235;28;20078;-40
2022/11/27 04:23:08;;;;;;;16.83;5.93;;;5.80;99.90;;;;;;4957589;28;20055;-42
2022/11/27 04:25:35;;;;;;;16.85;5.55;;;5.80;99.90;;;;;;4956122;28;20050;-40
2022/11/27 04:28:02;;;;;;;17.75;5.85;;;5.80;99.90;;;;;;4974162;28;20146;-40
2022/11/27 04:30:30;;;;;;;16.73;5.68;;;5.80;99.90;;;;;;4973625;28;20089;-42
2022/11/27 04:32:57;;;;;;;18.63;6.50;;;5.80;99.90;;;;;;4976631;28;20046;-40
2022/11/27 04:35:24;;;;;;;17.38;5.88;;;5.80;99.90;;;;;;4958341;28;20063;-41
2022/11/27 04:37:51;;;;;;;15.95;6.03;;;5.80;99.90;;;;;;4975375;28;20113;-38
2022/11/27 04:40:18;;;;;;;14.45;5.53;;;5.80;99.90;;;;;;4974399;28;20117;-41
2022/11/27 04:42:45;;;;;;;21.30;6.38;;;5.80;99.90;;;;;;4968558;28;20047;-38
2022/11/27 04:45:11;;;;;;;17.08;5.82;;;5.80;99.90;;;;;;4973269;28;20050;-41
2022/11/27 04:47:39;;;;;;;18.50;5.68;;;5.80;99.90;;;;;;4979620;28;20510;-40
2022/11/27 04:50:08;;;;;;;17.77;6.05;;;5.80;99.90;;;;;;4972561;28;20471;-41
2022/11/27 04:52:34;;;;;;;19.67;5.40;;;5.80;99.90;;;;;;4972688;28;20046;-41
2022/11/27 04:55:01;;;;;;;23.45;5.82;;;5.70;99.90;;;;;;4957707;28;21944;-41
2022/11/27 04:57:28;;;;;;;23.92;5.82;;;5.80;99.90;;;;;;4960944;28;20503;-41
2022/11/27 04:59:55;;;;;;;17.00;6.25;;;5.80;99.90;;;;;;4974403;28;20078;-41
2022/11/27 05:02:21;;;;;;;14.93;5.45;;;5.80;99.90;;;;;;4973237;28;20467;-41
2022/11/27 05:04:53;;;;;;;18.90;6.28;;;5.70;99.90;;;;;;4955335;28;20078;-42
2022/11/27 05:07:19;;;;;;;22.50;5.82;;;5.70;99.90;;;;;;4973997;28;20110;-41
2022/11/27 05:09:46;;;;;;;15.20;5.47;;;5.80;99.90;;;;;;4974282;28;20134;-39
2022/11/27 05:12:13;;;;;;;18.83;5.85;;;5.70;99.90;;;;;;4971432;28;20059;-40
2022/11/27 05:14:40;;;;;;;19.85;5.80;;;5.80;99.90;;;;;;4974908;28;20114;-40
2022/11/27 05:17:06;;;;;;;22.02;5.95;;;5.70;99.90;;;;;;4974181;28;20047;-41
2022/11/27 05:19:33;;;;;;;17.90;5.80;;;5.80;99.90;;;;;;4956058;28;20141;-40
2022/11/27 05:22:01;;;;;;;24.58;5.80;;;5.70;99.90;;;;;;4957026;28;20133;-42
2022/11/27 05:24:28;;;;;;;20.40;5.75;;;5.80;99.90;;;;;;4972931;28;20078;-41
2022/11/27 05:26:55;;;;;;;14.30;5.60;;;5.70;99.90;;;;;;4974194;28;20074;-40
2022/11/27 05:29:22;;;;;;;14.88;5.47;;;5.70;99.90;;;;;;4955989;28;20141;-41
2022/11/27 05:31:49;;;;;;;18.38;5.10;;;5.70;99.90;;;;;;4973599;28;20102;-41
2022/11/27 05:34:16;;;;;;;19.02;5.53;;;5.80;99.90;;;;;;4972475;28;20566;-39
2022/11/27 05:36:43;;;;;;;14.98;5.00;;;5.70;99.90;;;;;;4957066;28;20082;-41
2022/11/27 05:39:11;;;;;;;13.88;4.88;;;5.70;99.90;;;;;;4963937;28;20051;-40
2022/11/27 05:41:39;;;;;;;17.05;5.75;;;5.70;99.90;;;;;;4970284;28;20110;-41
2022/11/27 05:44:06;;;;;;;16.35;4.90;;;5.70;99.90;;;;;;4956611;28;20055;-41
2022/11/27 05:46:33;;;;;;;14.25;4.95;;;5.70;99.90;;;;;;4973381;28;20058;-41
2022/11/27 05:49:00;;;;;;;18.17;5.65;;;5.70;99.90;;;;;;4972092;28;20070;-42
2022/11/27 05:51:26;;;;;;;12.32;5.20;;;5.70;99.90;;;;;;4971511;28;20082;-38
2022/11/27 05:53:53;;;;;;;17.55;5.13;;;5.70;99.90;;;;;;4963968;28;20461;-40
2022/11/27 05:56:21;;;;;;;19.38;5.75;;;5.70;99.90;;;;;;4970692;28;20149;-40
2022/11/27 05:58:50;;;;;;;15.68;5.13;;;5.70;99.90;;;;;;4973725;28;20082;-41
2022/11/27 06:01:17;;;;;;;17.02;5.35;;;5.70;99.90;;;;;;4965558;28;20050;-41
2022/11/27 06:03:44;;;;;;;13.65;4.68;;;5.70;99.90;;;;;;4954005;28;20054;-41
2022/11/27 06:06:12;;;;;;;16.00;5.00;;;5.70;99.90;;;;;;4948608;28;20066;-41
2022/11/27 06:08:39;;;;;;;16.70;5.38;;;5.70;99.90;;;;;;4972184;28;20403;-41
2022/11/27 06:11:08;;;;;;;16.45;5.45;;;5.70;99.90;;;;;;4972706;28;20159;-39
2022/11/27 06:13:36;;;;;;;14.60;4.97;;;5.70;99.90;;;;;;4954405;28;20133;-41
2022/11/27 06:16:07;;;;;;;13.52;5.18;;;5.70;99.90;;;;;;4945711;28;20121;-41
2022/11/27 06:18:34;;;;;;;16.83;5.23;;;5.60;99.90;;;;;;4951239;28;20118;-41
2022/11/27 06:21:01;;;;;;;13.75;5.00;;;5.60;99.90;;;;;;4971109;28;20078;-41
2022/11/27 06:23:28;;;;;;;18.88;5.55;;;5.60;99.90;;;;;;4954751;28;20047;-41
2022/11/27 06:25:54;;;;;;;14.27;5.57;;;5.70;99.90;;;;;;4969923;28;20130;-41
2022/11/27 06:28:21;;;;;;;19.40;5.55;;;5.60;99.90;;;;;;4972342;28;20078;-41
2022/11/27 06:30:49;;;;;;;13.68;5.13;;;5.60;99.90;;;;;;4966708;28;20557;-40
2022/11/27 06:33:16;;;;;;;12.88;5.47;;;5.60;99.90;;;;;;4957356;28;20145;-40
2022/11/27 06:35:43;;;;;;;21.25;6.07;;;5.70;99.90;;;;;;4971699;28;20557;-40
2022/11/27 06:38:10;;;;;;;14.85;5.75;;;5.70;99.90;;;;;;4973288;28;20051;-41
2022/11/27 06:40:36;;;;;;;18.63;5.78;;;5.70;99.90;;;;;;4954922;28;20090;-41
2022/11/27 06:43:03;;;;;;;16.45;5.68;;;5.70;99.90;;;;;;4969207;28;20082;-40
2022/11/27 06:45:30;;;;;;;13.60;5.80;;;5.70;99.90;;;;;;4965334;28;20083;-41
2022/11/27 06:47:58;;;;;;;15.57;5.55;;;5.70;99.90;;;;;;4950173;28;20083;-40
2022/11/27 06:50:25;;;;;;;13.30;5.35;;;5.70;99.90;;;;;;4956907;28;20138;-40
2022/11/27 06:52:52;;;;;;;15.52;5.03;;;5.70;99.90;;;;;;4941139;28;20051;-40
2022/11/27 06:55:21;;;;;;;18.08;6.25;;;5.70;99.90;;;;;;4955445;28;20537;-41
2022/11/27 06:57:50;;;;;;;15.63;5.45;;;5.70;99.90;;;;;;4972441;28;20082;-41
2022/11/27 07:00:17;;;;;;;21.20;5.95;;;5.70;99.90;;;;;;4972770;28;20102;-40
2022/11/27 07:02:44;;;;;;;14.73;5.32;;;5.70;99.90;;;;;;4953645;28;20163;-41
2022/11/27 07:05:12;;;;;;;18.70;5.50;;;5.70;99.90;;;;;;4971062;28;20050;-40
2022/11/27 07:07:39;;;;;;;16.63;5.85;;;5.70;99.90;;;;;;4970927;28;20046;-40
2022/11/27 07:10:07;;;;;;;17.80;6.38;;;5.70;99.90;;;;;;4972196;28;20078;-41
2022/11/27 07:12:34;;;;;;;15.48;6.20;;;5.70;99.90;;;;;;4963683;28;20130;-40
2022/11/27 07:15:01;;;;;;;17.83;6.35;;;5.70;99.90;;;;;;4953318;28;20082;-39
2022/11/27 07:17:27;;;;;;;16.60;6.57;;;5.70;99.90;;;;;;4955476;28;20039;-40
2022/11/27 07:19:54;;;;;;;18.35;6.53;;;5.70;99.90;;;;;;4952756;28;20165;-41
2022/11/27 07:22:22;;;;;;;14.32;6.53;;;5.70;99.90;;;;;;4970644;28;20133;-40
2022/11/27 07:24:49;;;;;;;16.58;6.00;;;5.80;99.90;;;;;;4968937;28;20464;-40
2022/11/27 07:27:16;;;;;;;14.48;6.18;;;5.70;99.90;;;;;;4969745;28;20110;-39
2022/11/27 07:29:42;;;;;;;19.70;6.80;;;5.70;99.90;;;;;;4975909;28;20129;-39
2022/11/27 07:32:09;;;;;;;18.45;6.97;;;5.70;99.90;;;;;;4955706;28;20075;-36
2022/11/27 07:34:36;;;;;;;14.65;6.38;;;5.70;99.90;;;;;;4973472;28;20078;-40
2022/11/27 07:37:03;;;;;;;23.38;6.68;;;5.70;99.90;;;;;;4972465;28;20129;-40
2022/11/27 07:39:31;;;;;;;16.85;7.25;;;5.70;99.90;;;;;;4983033;28;20495;-39
2022/11/27 07:41:58;;;;;;;13.40;6.43;;;5.70;99.90;;;;;;4969105;28;20447;-40
2022/11/27 07:44:24;;;;;;;15.95;6.63;;;5.70;99.90;;;;;;4973655;28;20102;-39
2022/11/27 07:46:51;;;;;;;16.92;6.60;;;5.70;99.90;;;;;;4972066;28;20115;-40
2022/11/27 07:49:18;;;;;;;17.45;6.45;;;5.70;99.90;;;;;;4957864;28;20051;-40
2022/11/27 07:51:45;;;;;;;18.00;6.85;;;5.70;99.90;;;;;;4975586;28;20086;-40
2022/11/27 07:54:12;;;;;;;18.98;6.57;;;5.70;99.90;;;;;;4957222;28;20135;-39
2022/11/27 07:56:40;;;;;;;18.77;6.93;;;5.80;99.90;;;;;;4973903;28;20050;-39
2022/11/27 07:59:06;;;;;;;15.85;6.72;;;5.80;99.90;;;;;;4973593;28;20542;-39
2022/11/27 08:01:33;;;;;;;18.05;6.75;;;5.80;99.90;;;;;;4957752;28;20134;-38
2022/11/27 08:04:00;;;;;;;21.50;7.72;;;5.80;99.90;;;;;;4951487;28;20083;-40
2022/11/27 08:06:27;;;;;;;17.75;7.32;;;5.80;99.90;;;;;;4960221;28;20577;-40
2022/11/27 08:08:55;;;;;;;19.55;7.50;;;5.80;99.90;;;;;;4952139;28;20061;-39
2022/11/27 08:11:23;;;;;;;18.13;7.65;;;5.80;99.90;;;;;;4968780;28;20051;-40
2022/11/27 08:13:54;;;;;;;19.73;7.47;;;5.80;99.90;;;;;;4964157;28;20100;-39
2022/11/27 08:16:21;;;;;;;;;;;5.90;99.90;;;;;;4982302;28;20093;-39
2022/11/27 08:18:48;;;;;;;21.60;7.70;;;5.80;99.90;;;;;;4951000;28;19922;-37
2022/11/27 08:21:15;;;;;;;11.40;6.80;;;5.90;99.90;;;;;;4980127;28;20113;-39
2022/11/27 08:23:41;;;;;;;20.65;7.53;;;5.80;99.90;;;;;;4974372;28;20479;-39
2022/11/27 08:26:08;;;;;;;20.55;7.68;;;5.90;99.90;;;;;;4954327;28;20102;-39
2022/11/27 08:28:35;;;;;;;17.33;8.18;;;5.90;99.90;;;;;;4962541;28;20590;-40
2022/11/27 08:31:04;;;;;;;20.40;8.27;;;5.90;99.90;;;;;;4977332;28;20058;-38
2022/11/27 08:33:31;;;;;;;21.45;8.02;;;5.90;99.90;;;;;;4994778;28;20086;-39
2022/11/27 08:35:58;;;;;;;18.58;7.80;;;5.90;99.90;;;;;;4969349;28;20051;-39
2022/11/27 08:38:25;;;;;;;21.00;8.18;;;6.00;99.90;;;;;;4957502;28;20078;-41
2022/11/27 08:40:55;;;;;;;21.63;7.88;;;5.90;99.90;;;;;;4958546;28;20452;-37
2022/11/27 08:43:22;;;;;;;21.30;8.48;;;6.00;99.90;;;;;;4958480;28;20050;-39
2022/11/27 08:45:49;;;;;;;15.13;7.78;;;6.00;99.90;;;;;;4973253;28;20161;-39
2022/11/27 08:48:17;;;;;;;16.50;8.32;;;6.00;99.90;;;;;;4957757;28;20074;-40
2022/11/27 08:50:44;;;;;;;22.73;8.43;;;6.00;99.90;;;;;;4974355;28;20406;-40
2022/11/27 08:53:11;;;;;;;20.08;8.30;;;6.00;99.90;;;;;;4975463;28;20050;-39
2022/11/27 08:55:37;;;;;;;18.52;8.73;;;6.00;99.90;;;;;;4973413;28;20117;-40
2022/11/27 08:58:04;;;;;;;17.95;8.77;;;6.00;99.90;;;;;;4954618;28;20125;-39
2022/11/27 09:00:31;;;;;;;21.33;8.50;;;6.00;99.90;;;;;;4959493;28;20122;-39
2022/11/27 09:02:59;;;;;;;18.70;9.13;;;6.00;99.90;;;;;;4972017;28;20053;-38
2022/11/27 09:05:27;;;;;;;24.13;8.52;;;6.00;99.90;;;;;;4975064;28;20051;-39
2022/11/27 09:07:54;;;;;;;19.05;8.88;;;6.00;99.90;;;;;;4969677;28;20047;-39
2022/11/27 09:10:21;;;;;;;17.13;8.45;;;6.00;99.90;;;;;;4971962;28;20038;-39
2022/11/27 09:12:48;;;;;;;17.33;8.73;;;6.10;99.90;;;;;;4955405;28;20138;-39
2022/11/27 09:15:15;;;;;;;19.13;8.82;;;6.10;99.90;;;;;;4972652;28;20725;-40
2022/11/27 09:17:42;;;;;;;19.63;9.20;;;6.10;99.90;;;;;;4952706;28;20485;-39
2022/11/27 09:20:09;;;;;;;26.38;9.27;;;6.10;99.90;;;;;;4953738;28;20113;-40
2022/11/27 09:22:37;;;;;;;19.05;8.93;;;6.10;99.90;;;;;;4941793;28;20138;-40
2022/11/27 09:25:04;;;;;;;21.25;8.30;;;6.10;99.90;;;;;;4974302;28;20047;-39
2022/11/27 09:27:31;;;;;;;19.60;9.30;;;6.10;99.90;;;;;;4955222;28;20094;-40
2022/11/27 09:29:58;;;;;;;20.25;9.25;;;6.10;99.90;;;;;;4969359;28;20051;-39
2022/11/27 09:32:25;;;;;;;21.38;8.80;;;6.10;99.90;;;;;;4959500;28;20400;-40
2022/11/27 09:34:52;;;;;;;24.52;9.77;;;6.10;99.90;;;;;;4969790;28;20090;-41
2022/11/27 09:37:19;;;;;;;23.90;9.23;;;6.10;99.90;;;;;;4945293;29;20491;-41
2022/11/27 09:39:47;;;;;;;27.52;10.18;;;6.10;99.90;;;;;;4951220;28;20142;-40
2022/11/27 09:42:17;;;;;;;23.83;10.65;;;6.10;99.90;;;;;;4932344;29;20079;-43
2022/11/27 09:44:47;;;;;;;20.13;9.80;;;6.20;99.90;;;;;;4936998;29;20097;-44
2022/11/27 09:47:17;;;;;;;19.20;9.30;;;6.20;99.90;;;;;;4954864;28;20051;-43
2022/11/27 09:49:45;;;;;;;26.58;10.55;;;6.10;99.90;;;;;;4955574;28;20087;-44
2022/11/27 09:52:15;;;;;;;23.10;10.10;;;6.10;99.90;;;;;;4938691;29;20051;-42
2022/11/27 09:54:44;;;;;;;24.20;9.82;;;6.10;99.90;;;;;;4938491;28;20090;-43
2022/11/27 09:57:13;;;;;;;33.20;16.52;;;6.10;99.90;;;;;;4956311;28;20138;-45
2022/11/27 09:59:43;;;;;;;36.78;18.27;;;6.20;99.90;;;;;;4954115;29;20515;-47
2022/11/27 10:02:15;;;;;;;22.92;11.30;;;6.20;99.90;;;;;;4954799;29;20126;-48
2022/11/27 10:04:42;;;;;;;26.23;12.50;;;6.20;99.90;;;;;;4954351;29;20058;-43
2022/11/27 10:07:15;;;;;;;24.52;13.45;;;6.20;99.90;;;;;;4954520;29;20051;-44
2022/11/27 10:09:50;;;;;;;26.52;11.95;;;6.20;99.90;;;;;;4953523;28;20054;-45
2022/11/27 10:12:22;;;;;;;24.05;11.93;;;6.20;99.90;;;;;;4953354;29;20110;-45
2022/11/27 10:14:56;;;;;;;24.48;11.02;;;6.20;99.90;;;;;;4954296;29;20083;-43
2022/11/27 10:17:25;;;;;;;24.70;11.13;;;6.20;99.90;;;;;;4954510;29;20587;-45
2022/11/27 10:19:54;;;;;;;28.33;15.20;;;6.20;99.90;;;;;;4939994;29;20180;-47
2022/11/27 10:22:23;;;;;;;22.55;10.13;;;6.20;99.90;;;;;;4941116;29;20091;-44
2022/11/27 10:24:56;;;;;;;22.70;10.95;;;6.20;99.90;;;;;;4935235;29;20109;-45
2022/11/27 10:27:28;;;;;;;28.10;11.18;;;6.20;99.90;;;;;;4937839;29;20090;-46
2022/11/27 10:29:55;;;;;;;24.02;10.95;;;6.30;99.90;;;;;;4954385;29;20535;-46
2022/11/27 10:32:23;;;;;;;22.92;10.73;;;6.20;99.90;;;;;;4936594;29;20051;-45
2022/11/27 10:34:52;;;;;;;21.90;11.00;;;6.30;99.90;;;;;;4951063;28;20139;-47
2022/11/27 10:37:21;;;;;;;21.73;10.73;;;6.20;99.90;;;;;;4973394;28;20495;-45
2022/11/27 10:39:49;;;;;;;21.67;10.10;;;6.20;99.90;;;;;;4973222;28;20066;-45
2022/11/27 10:42:19;;;;;;;22.40;11.27;;;6.30;99.90;;;;;;4971320;28;20486;-45
2022/11/27 10:44:49;;;;;;;27.23;14.73;;;6.30;99.90;;;;;;4960631;28;20059;-45
2022/11/27 10:47:16;;;;;;;19.60;10.65;;;6.30;99.90;;;;;;4973233;28;20172;-44
2022/11/27 10:49:43;;;;;;;23.13;10.57;;;6.20;99.90;;;;;;4972784;28;20082;-44
2022/11/27 10:52:12;;;;;;;32.22;11.48;;;6.30;99.90;;;;;;4973361;28;20046;-46
2022/11/27 10:54:39;;;;;;;24.23;10.80;;;6.30;99.90;;;;;;4956245;28;20090;-45
2022/11/27 10:57:18;;;;;;;30.02;11.05;;;6.30;99.90;;;;;;4967251;28;20063;-44
2022/11/27 10:59:48;;;;;;;22.77;10.63;;;6.30;99.90;;;;;;4950298;28;20075;-45
2022/11/27 11:02:28;;;;;;;20.90;10.25;;;6.30;99.90;;;;;;4971788;28;20078;-45
2022/11/27 11:04:55;;;;;;;18.83;9.65;;;6.30;99.90;;;;;;4972818;28;20086;-44
2022/11/27 11:07:24;;;;;;;22.65;10.43;;;6.30;99.90;;;;;;4957194;28;20057;-45
2022/11/27 11:09:51;;;;;;;21.25;9.07;;;6.30;99.90;;;;;;4956614;28;20051;-44
2022/11/27 11:12:20;;;;;;;20.48;9.55;;;6.40;99.90;;;;;;4955794;28;20114;-43
2022/11/27 11:14:51;;;;;;;20.73;9.65;;;6.40;99.90;;;;;;4967764;28;20201;-41
2022/11/27 11:17:22;;;;;;;24.90;11.60;;;6.40;99.90;;;;;;4964211;28;20082;-45
2022/11/27 11:19:49;;;;;;;32.73;15.83;;;6.40;99.90;;;;;;4963584;28;20051;-45
2022/11/27 11:22:16;;;;;;;19.42;11.30;;;6.40;99.90;;;;;;4959994;28;20412;-46
2022/11/27 11:24:45;;;;;;;19.35;9.57;;;6.40;99.90;;;;;;4962191;28;20082;-47
2022/11/27 11:27:13;;;;;;;26.02;10.00;;;6.40;99.90;;;;;;4957985;28;20101;-43
2022/11/27 11:29:41;;;;;;;25.75;9.68;;;6.40;99.90;;;;;;4972854;28;20055;-44
2022/11/27 11:32:11;;;;;;;20.25;9.38;;;6.40;99.90;;;;;;4967419;28;20150;-43
2022/11/27 11:34:42;;;;;;;22.25;10.20;;;6.40;99.90;;;;;;4971147;28;20184;-39
2022/11/27 11:37:17;;;;;;;19.98;9.40;;;6.50;99.90;;;;;;4970392;28;20109;-46
2022/11/27 11:39:44;;;;;;;19.90;9.52;;;6.50;99.90;;;;;;4972964;28;20086;-45
2022/11/27 11:42:16;;;;;;;23.70;10.43;;;6.50;99.90;;;;;;4957253;28;20109;-48
2022/11/27 11:44:42;;;;;;;24.85;11.55;;;6.50;99.90;;;;;;4959316;28;20467;-44
2022/11/27 11:47:16;;;;;;;18.40;10.02;;;6.50;99.90;;;;;;4954145;28;20134;-45
2022/11/27 11:49:42;;;;;;;23.08;11.43;;;6.60;99.90;;;;;;4969411;28;20137;-43
2022/11/27 11:52:20;;;;;;;22.05;9.43;;;6.60;99.90;;;;;;4965546;28;20137;-42
2022/11/27 11:54:55;;;;;;;25.58;10.55;;;6.60;99.90;;;;;;4974478;28;20461;-45
2022/11/27 11:57:46;;;;;;;19.58;9.65;;;6.60;99.90;;;;;;4955490;28;20121;-44
2022/11/27 12:03:00;;;;;;;24.58;10.77;;;6.70;99.90;;;;;;4920934;22;20308;-42
2022/11/27 12:05:31;;;;;;;22.90;9.93;;;6.70;99.90;;;;;;4959059;28;20048;-44
2022/11/27 12:08:23;;;;;;;17.25;9.63;;;6.60;99.90;;;;;;4956639;28;20090;-43
2022/11/27 12:10:54;;;;;;;17.60;8.43;;;6.70;99.90;;;;;;4973008;28;20086;-47
2022/11/27 12:13:29;;;;;;;18.45;9.82;;;6.70;99.90;;;;;;4972374;28;20090;-43
2022/11/27 12:15:59;;;;;;;21.38;9.55;;;6.70;99.90;;;;;;4978152;28;20043;-45
2022/11/27 12:18:31;;;;;;;20.45;10.13;;;6.70;99.90;;;;;;4972147;28;20043;-44
2022/11/27 12:21:03;;;;;;;15.90;9.15;;;6.70;99.90;;;;;;4975733;28;20466;-44
2022/11/27 12:24:03;;;;;;;18.48;9.73;;;6.70;99.90;;;;;;4967072;28;20448;-45
2022/11/27 12:26:36;;;;;;;21.58;9.05;;;6.80;99.90;;;;;;4909292;29;20117;-44
2022/11/27 12:29:21;;;;;;;17.90;8.65;;;6.80;99.90;;;;;;4958690;28;20196;-43
2022/11/27 12:31:58;;;;;;;20.98;8.45;;;6.80;99.90;;;;;;4999384;28;20086;-39
2022/11/27 12:34:30;;;;;;;16.10;8.90;;;6.80;99.90;;;;;;4972428;28;20086;-44
2022/11/27 12:37:06;;;;;;;21.55;9.65;;;6.80;99.90;;;;;;4991266;28;20450;-42
2022/11/27 12:39:34;;;;;;;19.83;8.65;;;6.80;99.90;;;;;;4985070;28;20054;-39
2022/11/27 12:42:11;;;;;;;18.50;8.52;;;6.80;99.90;;;;;;4954534;28;20055;-40
2022/11/27 12:44:46;;;;;;;16.98;9.25;;;6.80;99.90;;;;;;4980363;28;20495;-41
2022/11/27 12:47:15;;;;;;;18.15;8.82;;;6.80;99.90;;;;;;4964976;28;20047;-39
2022/11/27 12:49:45;;;;;;;21.08;10.75;;;6.80;99.90;;;;;;4981427;28;20506;-40
2022/11/27 12:52:14;;;;;;;17.15;9.15;;;6.80;99.90;;;;;;4977607;28;20063;-41
2022/11/27 12:54:43;;;;;;;18.55;10.45;;;6.80;99.90;;;;;;4987503;28;20047;-41